Time;durP1;ratioP1;P1;durP2;ratioP2;P2;SDS_P1;SDS_P2;PMS_P1;PMS_P2;Temp;Humidity;BMP_temperature;BMP_pressure;BME280_temperature;BME280_humidity;BME280_pressure;Samples;Min_cycle;Max_cycle;Signal;HPM_P1;HPM_P2
2024/02/03 00:05:13;;;;;;;0.80;0.60;;;;;;;8.56;51.08;96376.97;6217964;22;20035;-86
2024/02/03 00:07:41;;;;;;;0.85;0.63;;;;;;;8.27;52.08;96376.13;6193514;23;20016;-87
2024/02/03 00:10:07;;;;;;;0.73;0.60;;;;;;;8.66;50.93;96376.97;6218247;23;20004;-87
2024/02/03 00:12:33;;;;;;;0.75;0.60;;;;;;;8.56;51.63;96376.16;6218571;23;20015;-86
2024/02/03 00:14:58;;;;;;;1.65;0.57;;;;;;;8.64;51.09;96367.69;6193103;23;20012;-87
2024/02/03 00:17:24;;;;;;;2.80;0.70;;;;;;;8.44;51.60;96372.88;6186292;22;20017;-86
2024/02/03 00:19:52;;;;;;;0.60;0.60;;;;;;;8.55;51.39;96379.72;6188138;23;20039;-86
2024/02/03 00:22:17;;;;;;;0.80;0.75;;;;;;;8.64;51.17;96383.25;6188027;23;20015;-86
2024/02/03 00:24:46;;;;;;;1.20;0.70;;;;;;;8.40;52.10;96381.88;6188176;23;20004;-86
2024/02/03 00:27:11;;;;;;;0.82;0.82;;;;;;;8.25;53.27;96373.66;6163817;23;20119;-86
2024/02/03 00:29:37;;;;;;;0.75;0.68;;;;;;;8.50;51.30;96349.00;6213427;22;20035;-87
2024/02/03 00:32:03;;;;;;;0.60;0.60;;;;;;;8.06;52.92;96364.06;6168531;23;20024;-87
2024/02/03 00:34:28;;;;;;;1.17;0.85;;;;;;;8.05;53.16;96357.25;6193135;23;20008;-86
2024/02/03 00:36:54;;;;;;;1.25;0.70;;;;;;;8.10;52.37;96352.47;6193140;23;20015;-87
2024/02/03 00:49:40;;;;;;;0.70;0.60;;;;;;;8.56;50.99;96332.06;6214676;22;20036;-86
2024/02/03 00:52:05;;;;;;;0.65;0.65;;;;;;;8.29;52.06;96315.41;6163102;23;20021;-87
2024/02/03 00:54:31;;;;;;;0.60;0.60;;;;;;;8.34;51.67;96320.16;6188019;23;20058;-87
2024/02/03 00:56:56;;;;;;;0.70;0.52;;;;;;;8.14;52.85;96309.78;6163270;23;20005;-87
2024/02/03 00:59:23;;;;;;;0.93;0.70;;;;;;;8.58;50.62;96310.22;6163453;23;20009;-86
2024/02/03 01:01:49;;;;;;;0.93;0.70;;;;;;;8.25;52.18;96298.50;6162838;23;20012;-87
2024/02/03 01:04:14;;;;;;;1.10;0.70;;;;;;;8.32;51.43;96298.75;6187765;23;20084;-87
2024/02/03 01:06:40;;;;;;;1.10;0.70;;;;;;;8.40;51.31;96299.72;6187185;23;20016;-87
2024/02/03 01:14:06;;;;;;;0.90;0.80;;;;;;;7.83;54.89;96290.97;6226122;22;20027;-87
2024/02/03 01:16:32;;;;;;;0.85;0.63;;;;;;;8.25;52.40;96274.34;6192574;23;20020;-87
2024/02/03 01:18:57;;;;;;;0.73;0.60;;;;;;;8.40;51.32;96286.75;6217655;23;20004;-87
2024/02/03 01:21:23;;;;;;;1.35;0.70;;;;;;;8.18;51.91;96293.00;6193001;23;20019;-86
2024/02/03 01:23:48;;;;;;;1.08;0.70;;;;;;;8.11;52.64;96297.13;6218001;23;20008;-87
2024/02/03 01:28:40;;;;;;;0.95;0.50;;;;;;;8.26;51.92;96278.56;6187666;22;20029;-87
2024/02/03 01:31:07;;;;;;;0.43;0.43;;;;;;;8.46;50.61;96282.81;6187703;23;20013;-86
2024/02/03 01:33:33;;;;;;;0.55;0.45;;;;;;;8.45;50.22;96276.00;6187938;23;20068;-87
2024/02/03 01:36:00;;;;;;;0.77;0.50;;;;;;;8.43;50.66;96277.09;6187466;23;20048;-88
2024/02/03 01:38:26;;;;;;;0.70;0.50;;;;;;;8.49;51.32;96269.59;6187599;23;20008;-87
2024/02/03 01:40:51;;;;;;;1.23;0.68;;;;;;;8.53;51.70;96272.69;6162652;23;20005;-87
2024/02/03 01:48:27;;;;;;;0.80;0.50;;;;;;;8.31;52.43;96269.44;6189552;23;20028;-88
2024/02/03 01:50:54;;;;;;;1.65;0.60;;;;;;;8.35;52.38;96278.56;6187715;23;20004;-86
2024/02/03 01:53:20;;;;;;;0.80;0.70;;;;;;;8.23;52.47;96261.53;6162798;23;20109;-87
2024/02/03 01:55:52;;;;;;;1.17;0.50;;;;;;;8.33;52.63;96271.88;6187646;23;20036;-88
2024/02/03 01:58:19;;;;;;;1.00;0.70;;;;;;;8.34;53.08;96263.13;6187512;23;19997;-87
2024/02/03 02:05:55;;;;;;;0.93;0.80;;;;;;;8.30;53.68;96264.38;6219551;22;20043;-87
2024/02/03 02:08:34;;;;;;;1.17;0.90;;;;;;;8.35;53.52;96254.41;6192860;23;20015;-88
2024/02/03 02:11:00;;;;;;;0.77;0.73;;;;;;;8.46;52.58;96256.09;6217155;23;20009;-87
2024/02/03 02:13:26;;;;;;;0.60;0.60;;;;;;;8.38;52.59;96254.16;6217248;23;20004;-87
2024/02/03 02:26:02;;;;;;;1.50;1.20;;;;;;;8.06;55.58;96251.84;6241528;22;20111;-87
2024/02/03 02:28:28;;;;;;;2.45;1.35;;;;;;;8.02;56.39;96264.25;6217354;23;20016;-87
2024/02/03 02:30:54;;;;;;;1.80;1.20;;;;;;;8.13;55.52;96252.91;6217321;23;20026;-86
2024/02/03 02:33:19;;;;;;;1.45;1.17;;;;;;;8.03;55.85;96250.31;6217549;23;20220;-86
2024/02/03 02:38:20;;;;;;;1.70;1.50;;;;;;;7.88;56.35;96247.34;6215027;22;20031;-86
2024/02/03 02:40:45;;;;;;;2.42;1.20;;;;;;;7.97;56.29;96256.06;6187254;23;20008;-85
2024/02/03 02:43:12;;;;;;;1.90;1.60;;;;;;;7.92;56.45;96263.41;6186780;23;20001;-87
2024/02/03 02:45:37;;;;;;;2.03;1.20;;;;;;;7.88;57.00;96251.69;6186550;23;20016;-86
2024/02/03 02:50:29;;;;;;;2.22;1.10;;;;;;;8.11;56.04;96242.72;6206082;22;20079;-88
2024/02/03 02:52:55;;;;;;;2.42;1.45;;;;;;;7.89;56.32;96242.97;6217135;23;20220;-86
2024/02/03 02:55:22;;;;;;;2.92;1.23;;;;;;;7.93;56.80;96254.69;6217054;23;20008;-86
2024/02/03 02:57:48;;;;;;;1.70;1.40;;;;;;;8.05;55.94;96256.19;6191834;23;20014;-86
2024/02/03 03:00:14;;;;;;;1.50;1.15;;;;;;;8.10;56.07;96255.81;6217038;23;20004;-87
2024/02/03 03:02:40;;;;;;;2.20;1.20;;;;;;;8.31;54.89;96247.88;6217290;23;20083;-86
2024/02/03 03:05:11;;;;;;;1.85;1.27;;;;;;;8.32;55.07;96252.94;6216861;23;20000;-86
2024/02/03 03:07:37;;;;;;;1.80;1.20;;;;;;;8.04;56.06;96254.56;6216497;23;20030;-87
2024/02/03 03:10:02;;;;;;;1.98;1.17;;;;;;;8.03;56.32;96263.28;6216889;23;20004;-87
2024/02/03 03:14:53;;;;;;;1.10;1.00;;;;;;;8.27;54.52;96262.06;6203517;22;20025;-87
2024/02/03 03:17:19;;;;;;;2.03;1.17;;;;;;;8.27;54.75;96264.66;6186689;23;20016;-88
2024/02/03 03:19:44;;;;;;;1.63;1.10;;;;;;;8.23;55.12;96272.72;6161697;23;20035;-86
2024/02/03 03:22:13;;;;;;;2.53;1.10;;;;;;;8.37;54.15;96263.69;6186759;23;20009;-87
2024/02/03 03:32:14;;;;;;;1.98;0.95;;;;;;;8.14;54.18;96257.16;6243338;22;20031;-87
2024/02/03 03:34:41;;;;;;;1.52;1.10;;;;;;;8.22;53.58;96252.09;6218853;23;20012;-87
2024/02/03 03:37:07;;;;;;;1.65;1.00;;;;;;;7.98;54.50;96258.53;6218815;23;20050;-88
2024/02/03 03:39:35;;;;;;;1.55;1.00;;;;;;;8.29;53.31;96255.78;6219019;23;20008;-87
2024/02/03 03:42:00;;;;;;;1.70;1.00;;;;;;;8.29;52.93;96260.97;6218628;23;20008;-86
2024/02/03 03:47:01;;;;;;;1.10;0.85;;;;;;;8.45;52.40;96251.84;6243257;22;20031;-87
2024/02/03 03:49:31;;;;;;;1.08;0.80;;;;;;;8.29;53.14;96248.00;6192523;23;20016;-87
2024/02/03 03:51:58;;;;;;;1.08;0.98;;;;;;;8.16;53.58;96256.06;6196028;23;20008;-87
2024/02/03 03:54:24;;;;;;;1.05;0.90;;;;;;;7.95;54.50;96256.19;6219326;23;20058;-86
2024/02/03 03:56:49;;;;;;;1.13;0.80;;;;;;;8.01;53.72;96260.00;6193600;23;20000;-87
2024/02/03 04:06:50;;;;;;;1.38;1.00;;;;;;;8.07;53.68;96241.31;6244239;22;20016;-87
2024/02/03 04:09:16;;;;;;;1.10;1.00;;;;;;;8.03;54.28;96245.16;6193797;23;20026;-87
2024/02/03 04:11:41;;;;;;;1.65;1.00;;;;;;;8.32;53.03;96236.53;6218997;23;20000;-87
2024/02/03 04:14:07;;;;;;;1.40;1.00;;;;;;;8.29;53.22;96260.16;6218616;23;20008;-87
2024/02/03 04:16:35;;;;;;;1.10;1.00;;;;;;;8.26;53.59;96244.88;6193884;23;20067;-87
2024/02/03 04:21:28;;;;;;;1.23;0.90;;;;;;;7.99;53.80;96249.78;6241825;22;20114;-86
2024/02/03 04:23:53;;;;;;;1.00;0.88;;;;;;;7.81;54.51;96234.09;6218859;23;20012;-87
2024/02/03 04:26:19;;;;;;;1.10;0.85;;;;;;;8.25;53.06;96230.28;6193078;23;20110;-87
2024/02/03 04:28:44;;;;;;;2.00;0.95;;;;;;;8.49;52.10;96235.03;6218345;23;20012;-87
2024/02/03 04:31:14;;;;;;;1.00;0.90;;;;;;;8.56;51.46;96229.16;6218394;23;20004;-87
2024/02/03 04:33:39;;;;;;;1.35;0.90;;;;;;;8.60;51.61;96237.47;6193315;23;20027;-88
2024/02/03 04:36:05;;;;;;;1.65;0.90;;;;;;;8.69;51.80;96254.00;6218548;23;20036;-86
2024/02/03 04:38:30;;;;;;;1.00;0.90;;;;;;;8.60;51.64;96245.25;6218168;23;20000;-86
2024/02/03 04:40:56;;;;;;;1.00;0.80;;;;;;;8.41;52.11;96239.19;6218186;23;20007;-86
2024/02/03 04:43:22;;;;;;;1.23;0.90;;;;;;;8.33;52.68;96240.78;6218137;23;20062;-87
2024/02/03 04:48:12;;;;;;;2.22;1.30;;;;;;;8.12;53.03;96246.94;6240701;22;20024;-86
2024/02/03 04:50:38;;;;;;;1.98;1.30;;;;;;;7.89;53.91;96248.97;6193285;23;20027;-87
2024/02/03 04:53:04;;;;;;;1.52;1.08;;;;;;;7.87;53.96;96239.72;6218363;23;20011;-86
2024/02/03 04:55:29;;;;;;;1.98;1.27;;;;;;;7.59;55.01;96242.13;6192976;23;20093;-86
2024/02/03 04:57:55;;;;;;;1.92;1.30;;;;;;;7.71;54.36;96241.06;6218320;23;20012;-86
2024/02/03 05:02:56;;;;;;;2.25;1.20;;;;;;;7.72;54.32;96241.88;6242469;22;20061;-87
2024/02/03 05:05:21;;;;;;;1.95;1.20;;;;;;;7.66;54.64;96257.94;6216800;23;20008;-87
2024/02/03 05:07:50;;;;;;;1.73;1.02;;;;;;;7.72;54.00;96242.69;6216099;23;20018;-87
2024/02/03 05:12:47;;;;;;;1.40;1.17;;;;;;;7.90;53.50;96250.63;6188883;22;1218385;-87
2024/02/03 05:15:12;;;;;;;1.52;1.10;;;;;;;7.76;53.88;96244.03;6243064;23;20019;-86
2024/02/03 05:17:38;;;;;;;1.40;0.98;;;;;;;7.44;54.64;96244.25;6217429;23;20008;-86
2024/02/03 05:20:08;;;;;;;1.40;1.20;;;;;;;7.32;55.58;96240.16;6217668;23;20030;-86
2024/02/03 05:22:33;;;;;;;2.17;1.30;;;;;;;6.93;56.83;96242.59;6218827;23;20062;-87
2024/02/03 05:25:02;;;;;;;2.78;1.00;;;;;;;7.15;55.99;96249.34;6192984;23;20008;-86
2024/02/03 05:27:28;;;;;;;1.55;1.20;;;;;;;7.22;56.17;96246.13;6192968;23;20012;-87
2024/02/03 05:29:53;;;;;;;1.63;1.20;;;;;;;7.26;55.86;96240.69;6192774;23;20134;-88
2024/02/03 05:32:18;;;;;;;1.58;0.98;;;;;;;7.25;55.47;96242.44;6193162;23;20008;-86
2024/02/03 05:34:44;;;;;;;1.40;1.20;;;;;;;7.34;55.20;96239.06;6193014;23;20016;-87
2024/02/03 05:37:10;;;;;;;1.27;0.90;;;;;;;7.71;53.88;96246.25;6217731;23;20004;-87
2024/02/03 05:39:37;;;;;;;1.77;0.90;;;;;;;7.61;53.65;96240.22;6192900;23;20008;-87
2024/02/03 05:42:03;;;;;;;1.00;0.73;;;;;;;7.47;54.02;96249.19;6168168;23;20043;-87
2024/02/03 05:44:28;;;;;;;1.40;0.80;;;;;;;7.42;54.12;96236.66;6192802;23;20039;-87
2024/02/03 05:49:19;;;;;;;1.17;0.90;;;;;;;7.50;53.92;96228.22;6243203;22;20027;-87
2024/02/03 05:51:45;;;;;;;2.35;0.88;;;;;;;7.78;53.25;96234.38;6192356;23;20031;-87
2024/02/03 05:54:10;;;;;;;0.90;0.75;;;;;;;7.95;52.51;96238.06;6217837;23;20066;-86
2024/02/03 05:56:37;;;;;;;0.95;0.80;;;;;;;8.01;52.67;96227.16;6167767;23;20004;-86
2024/02/03 06:01:28;;;;;;;1.13;0.90;;;;;;;7.69;53.82;96235.19;6186696;23;20025;-87
2024/02/03 06:03:56;;;;;;;1.10;0.70;;;;;;;7.70;53.00;96221.28;6138285;23;20107;-86
2024/02/03 06:06:22;;;;;;;0.98;0.60;;;;;;;7.58;52.85;96223.19;6212592;23;20001;-87
2024/02/03 06:08:47;;;;;;;1.05;0.80;;;;;;;7.58;53.36;96214.59;6187436;23;20016;-86
2024/02/03 06:11:13;;;;;;;0.60;0.60;;;;;;;7.67;53.20;96218.13;6187149;23;20143;-86
2024/02/03 06:13:41;;;;;;;0.60;0.60;;;;;;;8.07;52.33;96230.16;6187621;23;20020;-86
2024/02/03 06:16:06;;;;;;;1.10;0.57;;;;;;;8.04;51.72;96223.47;6138987;23;20005;-87
2024/02/03 06:18:32;;;;;;;0.90;0.60;;;;;;;8.04;51.75;96210.53;6187177;23;20005;-87
2024/02/03 06:20:57;;;;;;;0.60;0.60;;;;;;;8.27;50.65;96229.19;6162752;23;20092;-87
2024/02/03 06:23:23;;;;;;;1.10;0.90;;;;;;;8.14;51.11;96219.09;6138213;23;20043;-87
2024/02/03 06:25:48;;;;;;;1.10;0.80;;;;;;;8.02;50.43;96233.16;6162732;23;20005;-87
2024/02/03 06:35:50;;;;;;;1.33;1.13;;;;;;;8.13;50.62;96237.38;6242524;22;20040;-87
2024/02/03 06:38:19;;;;;;;0.95;0.80;;;;;;;8.18;50.11;96242.97;6192262;23;20008;-87
2024/02/03 06:40:47;;;;;;;1.85;1.08;;;;;;;8.22;50.33;96239.97;6217321;23;20004;-87
2024/02/03 06:43:13;;;;;;;1.20;1.10;;;;;;;8.17;50.90;96244.75;6192619;23;20012;-86
2024/02/03 06:57:37;;;;;;;1.90;1.20;;;;;;;7.68;52.55;96266.41;6232795;22;20047;-86
2024/02/03 07:00:03;;;;;;;4.13;1.20;;;;;;;7.86;52.66;96272.53;6192049;23;20039;-87
2024/02/03 07:02:29;;;;;;;3.50;1.35;;;;;;;7.73;53.73;96277.16;6191971;23;20016;-86
2024/02/03 07:04:54;;;;;;;1.50;1.15;;;;;;;8.03;52.59;96277.06;6216176;23;20035;-86
2024/02/03 07:14:56;;;;;;;1.52;1.40;;;;;;;7.73;53.70;96261.63;6212667;22;20008;-86
2024/02/03 07:17:21;;;;;;;1.67;1.20;;;;;;;7.54;54.66;96263.22;6162009;23;20015;-86
2024/02/03 07:19:47;;;;;;;1.73;1.17;;;;;;;7.71;54.33;96268.69;6186812;23;20053;-87
2024/02/03 07:22:12;;;;;;;2.17;1.20;;;;;;;7.77;54.17;96265.59;6162306;23;20144;-87
2024/02/03 07:24:38;;;;;;;1.08;0.98;;;;;;;8.14;52.94;96277.88;6162051;23;20017;-86
2024/02/03 07:27:06;;;;;;;2.35;1.55;;;;;;;8.08;52.59;96268.06;6187075;23;20004;-87
2024/02/03 07:29:35;;;;;;;3.83;2.10;;;;;;;8.10;52.61;96269.56;6187052;23;20011;-87
2024/02/03 07:32:02;;;;;;;2.38;1.50;;;;;;;8.32;52.10;96265.06;6162238;23;20024;-86
2024/02/03 07:37:03;;;;;;;2.25;1.25;;;;;;;8.43;51.11;96251.97;6232550;22;20032;-86
2024/02/03 07:39:29;;;;;;;1.80;1.10;;;;;;;8.38;51.93;96251.56;6216758;23;20004;-86
2024/02/03 07:41:54;;;;;;;2.45;1.55;;;;;;;8.38;51.42;96244.59;6191832;23;20119;-86
2024/02/03 07:44:19;;;;;;;3.15;1.52;;;;;;;8.39;51.56;96242.81;6217108;23;20074;-87
2024/02/03 07:46:45;;;;;;;1.30;1.00;;;;;;;8.76;50.54;96253.28;6217058;23;20011;-87
2024/02/03 07:59:31;;;;;;;1.30;0.90;;;;;;;13.07;43.20;96244.06;6215622;22;20013;-87
2024/02/03 08:01:57;;;;;;;1.58;0.82;;;;;;;14.80;39.57;96251.72;6216840;23;20085;-88
2024/02/03 08:04:23;;;;;;;0.70;0.70;;;;;;;16.11;36.65;96257.25;6191821;23;20012;-87
2024/02/03 08:06:48;;;;;;;0.50;0.50;;;;;;;16.44;35.53;96240.19;6216630;23;20012;-87
2024/02/03 08:20:16;;;;;;;1.83;0.80;;;;;;;19.44;31.99;96251.59;6183770;22;20076;-87
2024/02/03 08:22:45;;;;;;;1.38;1.15;;;;;;;19.54;32.21;96260.72;6159675;23;20028;-87
2024/02/03 08:25:11;;;;;;;3.53;1.88;;;;;;;19.43;33.07;96261.34;6158743;23;20017;-87
2024/02/03 08:27:36;;;;;;;2.17;1.70;;;;;;;19.63;32.30;96257.84;6183490;23;20011;-87
2024/02/03 08:49:28;;;;;;;1.95;1.70;;;;;;;19.23;30.18;96234.22;6217971;22;20024;-87
2024/02/03 08:51:54;;;;;;;1.08;0.98;;;;;;;19.54;28.79;96236.97;6218044;23;20019;-87
2024/02/03 08:54:19;;;;;;;1.02;0.90;;;;;;;19.86;29.33;96238.91;6233796;22;20020;-87
2024/02/03 09:09:42;;;;;;;2.13;1.00;;;;;;;20.75;27.07;96223.06;6241783;22;20012;-86
2024/02/03 09:12:08;;;;;;;2.10;1.20;;;;;;;21.09;28.19;96227.03;6218645;23;20016;-86
2024/02/03 09:14:37;;;;;;;2.03;1.05;;;;;;;21.60;26.32;96241.75;6218335;23;20012;-86
2024/02/03 09:17:03;;;;;;;1.50;1.02;;;;;;;21.48;26.20;96228.47;6193137;23;20095;-86
2024/02/03 09:24:40;;;;;;;1.70;1.38;;;;;;;21.85;27.21;96223.13;6235577;22;20019;-87
2024/02/03 09:27:05;;;;;;;2.05;1.20;;;;;;;21.68;29.51;96230.06;6218258;23;20020;-86
2024/02/03 09:29:31;;;;;;;3.60;1.30;;;;;;;21.93;29.07;96235.22;6192962;23;20122;-86
2024/02/03 09:31:56;;;;;;;3.28;1.63;;;;;;;21.89;30.54;96228.78;6193128;23;20019;-86
2024/02/03 09:39:15;;;;;;;4.10;2.50;;;;;;;21.70;31.31;96233.28;6241269;22;20020;-86
2024/02/03 09:41:44;;;;;;;5.30;2.03;;;;;;;21.79;31.60;96239.91;6217786;23;20016;-87
2024/02/03 09:44:10;;;;;;;2.72;1.92;;;;;;;21.55;32.39;96240.81;6192641;23;20008;-86
2024/02/03 09:49:13;;;;;;;2.42;2.08;;;;;;;21.14;32.04;96231.69;6192061;23;20025;-87
2024/02/03 09:51:39;;;;;;;2.00;1.80;;;;;;;20.44;32.82;96245.88;6162897;23;20019;-87
2024/02/03 09:54:05;;;;;;;3.38;1.95;;;;;;;20.06;34.86;96238.78;6187786;23;20032;-87
2024/02/03 09:58:55;;;;;;;3.90;2.10;;;;;;;19.13;34.57;96240.75;6212657;23;20039;-86
2024/02/03 10:01:21;;;;;;;2.92;1.60;;;;;;;19.00;34.39;96230.22;6217801;23;20004;-86
2024/02/03 10:03:55;;;;;;;1.60;1.50;;;;;;;18.75;32.54;96230.00;6192587;23;20012;-86
2024/02/03 10:06:21;;;;;;;1.15;1.05;;;;;;;18.67;30.39;96233.66;6192953;23;20087;-87
2024/02/03 10:08:51;;;;;;;1.88;1.30;;;;;;;18.23;32.16;96235.06;6217297;23;20035;-86
2024/02/03 10:11:18;;;;;;;2.00;1.80;;;;;;;18.19;35.88;96240.94;6192686;23;20047;-86
2024/02/03 10:13:44;;;;;;;2.33;2.10;;;;;;;18.31;37.96;96226.97;6163798;23;20005;-86
2024/02/03 10:16:09;;;;;;;2.25;1.90;;;;;;;18.14;38.57;96233.63;6162464;23;20021;-86
2024/02/03 10:18:35;;;;;;;3.47;2.00;;;;;;;17.85;40.09;96235.59;6186873;23;20005;-86
2024/02/03 10:21:01;;;;;;;3.10;2.10;;;;;;;17.99;37.62;96228.53;6162272;23;20005;-87
2024/02/03 10:26:01;;;;;;;3.08;2.10;;;;;;;17.17;37.53;96223.16;6217018;22;20032;-86
2024/02/03 10:28:27;;;;;;;2.10;1.90;;;;;;;17.39;39.91;96215.97;6192160;23;20004;-86
2024/02/03 10:30:56;;;;;;;3.33;2.15;;;;;;;17.68;39.36;96216.66;6192055;23;20062;-86
2024/02/03 10:33:22;;;;;;;1.80;1.70;;;;;;;17.59;39.54;96212.59;6192662;23;20012;-86
2024/02/03 10:35:49;;;;;;;2.67;1.90;;;;;;;17.77;38.25;96207.59;6192381;23;20012;-86
2024/02/03 10:43:27;;;;;;;3.92;2.20;;;;;;;17.87;40.20;96201.97;6186916;22;20036;-86
2024/02/03 10:45:56;;;;;;;2.60;2.17;;;;;;;17.57;40.16;96196.19;6187790;23;20025;-87
2024/02/03 10:48:25;;;;;;;3.60;2.47;;;;;;;17.32;41.50;96217.75;6187873;23;20016;-86
2024/02/03 10:50:58;;;;;;;4.35;2.10;;;;;;;16.84;43.54;96212.44;6187093;23;20016;-86
2024/02/03 10:53:28;;;;;;;3.50;2.58;;;;;;;16.98;42.20;96205.44;6186989;23;20091;-86
2024/02/03 11:03:38;;;;;;;3.20;2.10;;;;;;;16.59;41.49;96196.25;6234281;22;20035;-86
2024/02/03 11:06:07;;;;;;;4.55;2.25;;;;;;;16.86;40.82;96201.72;6241902;23;20032;-87
2024/02/03 11:08:33;;;;;;;3.20;2.30;;;;;;;16.65;41.18;96202.56;6216498;23;20012;-87
2024/02/03 11:10:59;;;;;;;2.53;2.20;;;;;;;16.45;41.69;96195.38;6216441;23;20017;-86
2024/02/03 11:18:27;;;;;;;2.22;2.03;;;;;;;16.32;41.36;96190.81;6181938;23;20054;-87
2024/02/03 11:21:05;;;;;;;2.72;2.10;;;;;;;15.60;42.85;96184.63;6182059;23;20012;-87
2024/02/03 11:23:31;;;;;;;2.92;2.15;;;;;;;15.61;43.68;96191.50;6181884;23;20009;-86
2024/02/03 11:25:58;;;;;;;2.30;2.00;;;;;;;15.64;45.88;96185.88;6156858;23;20015;-86
2024/02/03 11:36:14;;;;;;;2.13;1.80;;;;;;;16.30;41.77;96166.56;6241947;22;20024;-85
2024/02/03 11:46:22;;;;;;;3.38;2.10;;;;;;;15.83;43.29;96163.50;6240942;22;20020;-86
2024/02/03 11:48:47;;;;;;;2.30;2.10;;;;;;;16.36;41.78;96165.78;6191450;23;20012;-85
2024/02/03 11:51:14;;;;;;;3.17;2.28;;;;;;;16.33;42.34;96147.78;6192820;23;20032;-86
2024/02/03 11:53:43;;;;;;;4.70;2.08;;;;;;;16.50;42.24;96158.00;6218701;23;20088;-86
2024/02/03 12:06:21;;;;;;;3.22;2.50;;;;;;;16.22;44.09;96133.38;6244457;22;20032;-85
2024/02/03 12:08:47;;;;;;;2.40;2.15;;;;;;;16.16;43.68;96134.16;6218543;23;20095;-86
2024/02/03 12:16:23;;;;;;;2.45;2.20;;;;;;;16.25;41.89;96107.75;6240516;22;20016;-87
2024/02/03 12:18:49;;;;;;;2.17;1.90;;;;;;;16.60;43.31;96119.91;6217734;23;20022;-87
2024/02/03 12:21:14;;;;;;;2.30;1.92;;;;;;;16.87;41.48;96103.50;6217661;23;20075;-87
2024/02/03 12:23:43;;;;;;;1.98;1.80;;;;;;;16.99;43.65;96109.81;6194062;23;20012;-86
2024/02/03 12:26:08;;;;;;;3.17;1.80;;;;;;;17.35;42.46;96099.03;6219468;23;20030;-87
2024/02/03 12:33:34;;;;;;;2.10;1.80;;;;;;;17.67;40.27;96104.56;6246354;22;20017;-86
2024/02/03 12:36:00;;;;;;;2.13;1.30;;;;;;;17.84;38.06;96091.00;6218415;23;20011;-87
2024/02/03 12:43:26;;;;;;;1.50;1.08;;;;;;;17.84;33.06;96083.13;6244472;22;20027;-86
2024/02/03 12:45:52;;;;;;;1.77;0.90;;;;;;;18.08;32.43;96089.63;6193636;23;20008;-86
2024/02/03 12:50:43;;;;;;;1.25;1.00;;;;;;;17.95;31.54;96080.75;6197028;22;20105;-86
2024/02/03 12:53:11;;;;;;;2.10;0.90;;;;;;;17.89;30.94;96081.53;6188389;23;20013;-86
2024/02/03 12:55:40;;;;;;;2.65;1.00;;;;;;;18.23;30.65;96084.16;6187692;23;20012;-85
2024/02/03 12:58:06;;;;;;;2.83;1.05;;;;;;;18.19;31.75;96065.31;6188545;23;20012;-86
2024/02/03 13:00:35;;;;;;;1.40;1.05;;;;;;;18.41;32.49;96071.19;6138878;23;20012;-86
2024/02/03 13:03:01;;;;;;;1.42;1.00;;;;;;;18.17;30.55;96065.53;6162907;23;20008;-86
2024/02/03 13:05:26;;;;;;;1.40;1.10;;;;;;;17.82;31.59;96067.56;6213500;23;20008;-86
2024/02/03 13:07:52;;;;;;;1.63;1.00;;;;;;;18.05;30.56;96066.34;6188034;23;20004;-86
2024/02/03 13:10:17;;;;;;;1.90;0.95;;;;;;;17.68;31.52;96053.56;6213203;23;20004;-87
2024/02/03 13:12:43;;;;;;;1.02;0.93;;;;;;;18.17;33.45;96070.00;6188171;23;20016;-87
2024/02/03 13:17:34;;;;;;;2.10;1.50;;;;;;;18.53;33.82;96081.88;6243249;22;20027;-86
2024/02/03 13:22:25;;;;;;;1.90;1.50;;;;;;;18.29;33.65;96078.88;6216761;22;20028;-87
2024/02/03 13:24:54;;;;;;;1.67;1.30;;;;;;;18.32;32.56;96078.47;6191946;23;20027;-86
2024/02/03 13:27:19;;;;;;;2.53;1.23;;;;;;;18.24;33.10;96070.81;6217894;23;20018;-87
2024/02/03 13:29:45;;;;;;;1.52;1.30;;;;;;;18.16;31.92;96069.19;6216966;23;20048;-86
2024/02/03 13:32:10;;;;;;;1.58;1.05;;;;;;;18.09;32.41;96083.38;6217957;23;20062;-86
2024/02/03 13:34:36;;;;;;;1.02;0.90;;;;;;;18.15;30.58;96078.09;6217756;23;20027;-86
2024/02/03 13:37:02;;;;;;;1.00;0.90;;;;;;;17.86;31.15;96076.69;6217755;23;20008;-87
2024/02/03 13:39:28;;;;;;;1.10;0.98;;;;;;;17.93;33.42;96087.19;6218042;23;20004;-86
2024/02/03 13:41:56;;;;;;;2.25;1.48;;;;;;;17.84;33.02;96072.59;6218590;23;20065;-87
2024/02/03 13:49:22;;;;;;;2.72;1.40;;;;;;;17.81;33.14;96076.44;6241679;22;20277;-86
2024/02/03 13:51:51;;;;;;;2.33;1.20;;;;;;;17.93;33.48;96088.03;6192071;23;20012;-86
2024/02/03 13:54:17;;;;;;;3.35;1.45;;;;;;;17.87;33.36;96083.56;6218245;23;20158;-86
2024/02/03 13:56:43;;;;;;;1.40;1.20;;;;;;;17.85;32.36;96090.84;6217805;23;20008;-86
2024/02/03 13:59:08;;;;;;;1.77;1.38;;;;;;;17.82;32.44;96078.06;6192087;23;20008;-86
2024/02/03 14:01:35;;;;;;;2.17;1.33;;;;;;;17.65;34.00;96077.66;6217795;23;20008;-86
2024/02/03 14:04:00;;;;;;;1.60;1.40;;;;;;;18.02;33.08;96079.94;6192891;23;20012;-86
2024/02/03 14:06:27;;;;;;;1.85;1.40;;;;;;;17.86;32.96;96066.16;6217521;23;20000;-86
2024/02/03 14:08:52;;;;;;;2.25;1.30;;;;;;;17.83;32.49;96063.09;6188899;23;20096;-86
2024/02/03 14:11:18;;;;;;;2.17;1.27;;;;;;;17.73;32.32;96066.94;6187871;23;20040;-86
2024/02/03 14:13:43;;;;;;;1.10;1.00;;;;;;;17.65;32.50;96082.09;6162176;23;20019;-86
2024/02/03 14:16:14;;;;;;;2.08;0.88;;;;;;;17.67;32.50;96062.47;6187520;23;20019;-87
2024/02/03 14:18:40;;;;;;;1.90;1.60;;;;;;;17.82;31.07;96070.19;6211754;23;20066;-86
2024/02/03 14:21:09;;;;;;;1.20;1.10;;;;;;;17.58;32.45;96061.03;6186451;23;20071;-85
2024/02/03 14:26:08;;;;;;;1.40;1.02;;;;;;;17.78;31.79;96058.41;6239551;22;20028;-85
2024/02/03 14:28:37;;;;;;;1.13;1.02;;;;;;;17.88;31.61;96058.88;6194303;23;20011;-86
2024/02/03 14:31:03;;;;;;;2.60;1.30;;;;;;;17.58;32.57;96071.56;6216901;23;20004;-86
2024/02/03 14:38:29;;;;;;;1.50;1.40;;;;;;;17.82;33.28;96058.81;6212831;23;20020;-85
2024/02/03 14:40:55;;;;;;;2.55;1.45;;;;;;;17.87;33.00;96057.25;6187184;23;20019;-86
2024/02/03 14:43:20;;;;;;;1.85;1.30;;;;;;;17.67;33.44;96061.66;6162284;23;20091;-86
2024/02/03 14:45:49;;;;;;;2.03;1.55;;;;;;;17.45;34.03;96059.19;6162196;23;20015;-86
2024/02/03 14:48:14;;;;;;;3.05;1.38;;;;;;;17.46;34.26;96070.53;6162290;23;20001;-86
2024/02/03 14:50:40;;;;;;;2.90;1.55;;;;;;;17.63;35.01;96055.16;6186018;23;20031;-85
2024/02/03 14:53:05;;;;;;;1.77;1.40;;;;;;;17.19;36.03;96065.19;6217484;23;20004;-86
2024/02/03 14:55:31;;;;;;;2.60;1.50;;;;;;;17.26;36.54;96047.63;6217211;23;20017;-85
2024/02/03 14:57:56;;;;;;;3.10;1.50;;;;;;;17.52;36.45;96060.03;6217273;23;20014;-86
2024/02/03 15:00:23;;;;;;;1.85;1.60;;;;;;;17.54;36.50;96055.38;6216680;23;20004;-86
2024/02/03 15:02:51;;;;;;;3.15;1.45;;;;;;;17.68;35.48;96047.50;6133205;23;20017;-85
2024/02/03 15:05:17;;;;;;;1.63;1.52;;;;;;;17.68;35.88;96058.00;6157347;23;20071;-86
2024/02/03 15:07:42;;;;;;;2.70;1.40;;;;;;;17.77;35.18;96060.25;6132635;23;20017;-86
2024/02/03 15:19:59;;;;;;;2.55;1.58;;;;;;;17.41;36.27;96047.47;6236475;22;20027;-86
2024/02/03 15:22:27;;;;;;;1.67;1.52;;;;;;;17.24;36.38;96062.00;6191962;23;20004;-86
2024/02/03 15:24:55;;;;;;;2.17;1.50;;;;;;;17.31;36.43;96057.56;6216416;23;20016;-87
2024/02/03 15:27:20;;;;;;;1.77;1.58;;;;;;;17.26;36.08;96052.09;6192991;23;20023;-86
2024/02/03 15:32:11;;;;;;;2.17;1.50;;;;;;;16.99;37.21;96052.00;6233240;22;20803;-86
2024/02/03 15:34:37;;;;;;;1.73;1.40;;;;;;;16.91;36.56;96063.50;6191760;23;20233;-86
2024/02/03 15:37:03;;;;;;;2.03;1.40;;;;;;;16.75;36.23;96064.63;6216841;23;20016;-86
2024/02/03 15:39:28;;;;;;;1.83;1.45;;;;;;;17.08;35.83;96069.22;6216833;23;20063;-87
2024/02/03 15:44:24;;;;;;;4.28;1.63;;;;;;;16.52;36.66;96056.22;6242554;22;20031;-86
2024/02/03 15:46:53;;;;;;;2.35;1.63;;;;;;;16.50;36.61;96066.91;6217979;23;20081;-86
2024/02/03 15:49:22;;;;;;;1.65;1.40;;;;;;;16.39;36.62;96055.16;6192342;23;20016;-87
2024/02/03 15:51:47;;;;;;;1.92;1.70;;;;;;;16.49;36.23;96061.88;6191811;23;20012;-86
2024/02/03 15:59:24;;;;;;;3.67;1.90;;;;;;;16.11;36.55;96049.91;6240128;22;20028;-87
2024/02/03 16:01:49;;;;;;;2.10;1.83;;;;;;;16.05;36.75;96047.22;6191519;23;20077;-86
2024/02/03 16:04:15;;;;;;;2.17;1.98;;;;;;;15.93;38.75;96071.38;6216901;23;20012;-86
2024/02/03 16:06:40;;;;;;;2.33;1.90;;;;;;;15.77;39.20;96059.34;6216816;23;20016;-86
2024/02/03 16:09:06;;;;;;;3.05;1.92;;;;;;;15.60;38.67;96050.91;6216771;23;20003;-86
2024/02/03 16:11:31;;;;;;;2.13;1.92;;;;;;;15.58;38.57;96058.16;6191308;23;20012;-86
2024/02/03 16:13:57;;;;;;;2.80;2.15;;;;;;;15.52;38.89;96047.59;6216540;23;20004;-86